createdAt,value
2022-08-01T00:00:55.271Z,62.56
2022-08-01T00:01:55.279Z,61.83
2022-08-01T00:02:55.308Z,61.20
2022-08-01T00:03:55.234Z,63.80
2022-08-01T00:04:55.220Z,62.56
2022-08-01T00:05:55.212Z,62.57
2022-08-01T00:06:55.190Z,61.57
2022-08-01T00:07:55.208Z,60.43
2022-08-01T00:08:55.186Z,62.34
2022-08-01T00:09:55.176Z,61.75
2022-08-01T00:10:55.166Z,62.87
2022-08-01T00:11:59.418Z,62.34
2022-08-01T00:12:55.162Z,61.41
2022-08-01T00:13:55.134Z,62.16
2022-08-01T00:14:55.131Z,59.13
2022-08-01T00:15:55.108Z,58.89
2022-08-01T00:16:55.105Z,61.57
2022-08-01T00:17:55.130Z,62.66
2022-08-01T00:18:55.081Z,58.19
2022-08-01T00:19:55.119Z,57.86
2022-08-01T00:20:55.057Z,63.69
2022-08-01T00:21:55.052Z,62.77
2022-08-01T00:22:55.079Z,63.25
2022-08-01T00:23:55.028Z,60.74
2022-08-01T00:24:55.018Z,60.12
2022-08-01T00:25:55.010Z,59.84
2022-08-01T00:26:55.005Z,59.61
2022-08-01T00:27:54.986Z,60.64
2022-08-01T00:28:54.996Z,62.16
2022-08-01T00:30:13.435Z,60.50
2022-08-01T00:30:55.956Z,61.17
2022-08-01T00:31:54.947Z,63.79
2022-08-01T00:32:54.932Z,62.98
2022-08-01T00:33:54.950Z,63.40
2022-08-01T00:34:54.919Z,63.85
2022-08-01T00:35:54.902Z,62.49
2022-08-01T00:36:54.898Z,63.79
2022-08-01T00:37:54.891Z,64.19
2022-08-01T00:38:54.924Z,63.36
2022-08-01T00:39:54.871Z,63.53
2022-08-01T00:40:54.857Z,65.53
2022-08-01T00:41:59.802Z,63.38
2022-08-01T00:42:55.840Z,64.72
2022-08-01T00:43:54.859Z,64.37
2022-08-01T00:44:54.815Z,63.29
2022-08-01T00:45:54.807Z,63.57
2022-08-01T00:46:54.800Z,62.70
2022-08-01T00:47:55.432Z,64.36
2022-08-01T00:48:54.823Z,62.95
2022-08-01T00:49:54.789Z,62.86
2022-08-01T00:50:54.757Z,65.81
2022-08-01T00:51:54.748Z,64.89
2022-08-01T00:52:54.738Z,61.09
2022-08-01T00:53:54.728Z,62.91
2022-08-01T00:54:54.737Z,62.03
2022-08-01T00:55:54.708Z,60.66
2022-08-01T00:56:54.697Z,61.88
2022-08-01T00:58:05.022Z,62.16
2022-08-01T00:58:55.678Z,62.95
2022-08-01T00:59:54.686Z,63.87
2022-08-01T01:00:54.907Z,63.16
2022-08-01T01:01:54.705Z,61.82
2022-08-01T01:02:54.639Z,62.84
2022-08-01T01:03:59.507Z,61.53
2022-08-01T01:04:56.640Z,58.31
2022-08-01T01:05:54.616Z,58.12
2022-08-01T01:06:54.600Z,60.85
2022-08-01T01:07:54.591Z,63.54
2022-08-01T01:08:54.586Z,63.02
2022-08-01T01:09:54.623Z,61.18
2022-08-01T01:10:54.568Z,63.21
2022-08-01T01:11:54.557Z,61.70
2022-08-01T01:12:54.543Z,64.01
2022-08-01T01:13:54.534Z,63.55
2022-08-01T01:14:54.554Z,62.96
2022-08-01T01:15:54.525Z,59.74
2022-08-01T01:16:54.505Z,63.31
2022-08-01T01:17:54.497Z,61.34
2022-08-01T01:18:54.480Z,63.64
2022-08-01T01:19:54.476Z,62.64
2022-08-01T01:20:54.484Z,60.28
2022-08-01T01:21:54.459Z,61.62
2022-08-01T01:22:54.447Z,62.68
2022-08-01T01:23:54.437Z,58.74
2022-08-01T01:24:54.431Z,61.28
2022-08-01T01:25:54.433Z,62.33
2022-08-01T01:26:54.410Z,61.50
2022-08-01T01:27:54.397Z,55.69
2022-08-01T01:28:54.389Z,61.14
2022-08-01T01:29:59.693Z,60.72
2022-08-01T01:30:55.382Z,61.27
2022-08-01T01:31:54.356Z,58.84
2022-08-01T01:32:54.353Z,60.66
2022-08-01T01:33:54.338Z,63.21
2022-08-01T01:34:54.326Z,62.32
2022-08-01T01:35:54.355Z,61.56
2022-08-01T01:36:54.308Z,60.38
2022-08-01T01:37:54.288Z,60.29
2022-08-01T01:38:55.290Z,62.13
2022-08-01T01:39:54.549Z,62.57
2022-08-01T01:40:54.315Z,58.35
2022-08-01T01:41:54.265Z,58.25
2022-08-01T01:42:54.254Z,59.66
2022-08-01T01:43:54.243Z,64.05
2022-08-01T01:44:54.231Z,63.49
2022-08-01T01:45:54.221Z,62.65
2022-08-01T01:46:54.227Z,63.64
2022-08-01T01:47:54.201Z,60.32
2022-08-01T01:48:54.219Z,59.97
2022-08-01T01:49:54.184Z,61.54
2022-08-01T01:50:54.174Z,62.81
2022-08-01T01:52:02.484Z,61.92
2022-08-01T01:52:55.159Z,60.33
2022-08-01T01:53:54.147Z,58.42
2022-08-01T01:54:54.135Z,61.14
2022-08-01T01:55:54.124Z,58.94
2022-08-01T01:56:54.133Z,58.66
2022-08-01T01:57:54.105Z,62.65
2022-08-01T01:58:54.094Z,62.02
2022-08-01T01:59:54.088Z,60.74
2022-08-01T02:00:54.078Z,58.99
2022-08-01T02:02:05.017Z,64.09
2022-08-01T02:02:55.149Z,62.36
2022-08-01T02:03:55.051Z,62.30
2022-08-01T02:04:54.046Z,62.62
2022-08-01T02:05:54.036Z,61.33
2022-08-01T02:06:54.049Z,63.61
2022-08-01T02:07:54.015Z,60.71
2022-08-01T02:08:55.004Z,64.34
2022-08-01T02:09:53.996Z,60.09
2022-08-01T02:10:53.998Z,56.04
2022-08-01T02:12:09.371Z,63.23
2022-08-01T02:12:54.980Z,62.94
2022-08-01T02:13:53.985Z,61.57
2022-08-01T02:14:53.932Z,62.33
2022-08-01T02:15:59.750Z,59.72
2022-08-01T02:16:54.925Z,62.15
2022-08-01T02:17:53.930Z,61.33
2022-08-01T02:18:53.904Z,61.20
2022-08-01T02:19:53.893Z,61.82
2022-08-01T02:20:53.886Z,62.82
2022-08-01T02:21:53.876Z,62.19
2022-08-01T02:22:53.882Z,61.68
2022-08-01T02:23:53.858Z,61.48
2022-08-01T02:24:53.847Z,61.10
2022-08-01T02:26:09.578Z,61.33
2022-08-01T02:26:54.829Z,60.95
2022-08-01T02:27:53.864Z,62.18
2022-08-01T02:28:53.810Z,64.31
2022-08-01T02:29:53.806Z,62.01
2022-08-01T02:30:53.791Z,60.15
2022-08-01T02:31:53.780Z,62.69
2022-08-01T02:32:53.801Z,61.93
2022-08-01T02:33:53.761Z,61.18
2022-08-01T02:34:53.752Z,61.58
2022-08-01T02:36:32.033Z,61.01
2022-08-01T02:36:54.730Z,61.93
2022-08-01T02:37:53.710Z,61.12
2022-08-01T02:38:54.714Z,57.87
2022-08-01T02:39:54.698Z,62.00
2022-08-01T02:40:53.693Z,60.78
2022-08-01T02:41:53.682Z,61.24
2022-08-01T02:42:53.675Z,60.40
2022-08-01T02:43:53.772Z,62.77
2022-08-01T02:44:53.652Z,62.52
2022-08-01T02:45:53.638Z,61.89
2022-08-01T02:46:53.633Z,59.43
2022-08-01T02:47:53.630Z,60.42
2022-08-01T02:48:53.694Z,63.57
2022-08-01T02:49:54.009Z,62.54
2022-08-01T02:50:53.594Z,62.46
2022-08-01T02:51:53.586Z,65.78
2022-08-01T02:52:53.575Z,62.00
2022-08-01T02:53:53.599Z,62.77
2022-08-01T02:54:53.554Z,61.58
2022-08-01T02:55:53.539Z,62.90
2022-08-01T02:56:53.532Z,60.76
2022-08-01T02:57:56.902Z,62.24
2022-08-01T02:58:54.557Z,63.43
2022-08-01T02:59:53.511Z,62.05
2022-08-01T03:00:53.497Z,62.21
2022-08-01T03:01:55.109Z,61.81
2022-08-01T03:02:53.479Z,62.37
2022-08-01T03:03:53.471Z,62.26
2022-08-01T03:04:56.871Z,63.86
2022-08-01T03:05:54.452Z,61.74
2022-08-01T03:06:53.445Z,61.90
2022-08-01T03:07:53.427Z,63.42
2022-08-01T03:08:53.422Z,62.48
2022-08-01T03:09:53.432Z,60.72
2022-08-01T03:10:53.401Z,62.84
2022-08-01T03:11:53.392Z,62.03
2022-08-01T03:12:53.384Z,61.17
2022-08-01T03:13:53.377Z,64.53
2022-08-01T03:14:53.381Z,63.11
2022-08-01T03:15:53.351Z,64.39
2022-08-01T03:16:53.347Z,63.91
2022-08-01T03:17:53.355Z,65.46
2022-08-01T03:18:53.324Z,59.24
2022-08-01T03:19:53.358Z,62.10
2022-08-01T03:20:53.302Z,62.74
2022-08-01T03:21:53.294Z,61.82
2022-08-01T03:22:53.288Z,62.74
2022-08-01T03:23:55.186Z,64.72
2022-08-01T03:24:54.301Z,64.03
2022-08-01T03:25:53.254Z,63.66
2022-08-01T03:26:53.246Z,63.66
2022-08-01T03:27:53.235Z,63.85
2022-08-01T03:28:53.224Z,63.41
2022-08-01T03:29:53.228Z,64.80
2022-08-01T03:30:53.218Z,66.57
2022-08-01T03:31:53.193Z,63.96
2022-08-01T03:32:53.183Z,64.25
2022-08-01T03:33:53.175Z,64.73
2022-08-01T03:34:53.162Z,64.15
2022-08-01T03:35:53.171Z,63.84
2022-08-01T03:36:53.142Z,61.68
2022-08-01T03:38:15.216Z,64.30
2022-08-01T03:38:55.134Z,66.50
2022-08-01T03:39:53.121Z,64.57
2022-08-01T03:40:53.122Z,63.47
2022-08-01T03:41:56.640Z,64.72
2022-08-01T03:42:54.092Z,66.32
2022-08-01T03:43:53.075Z,64.54
2022-08-01T03:44:53.062Z,66.11
2022-08-01T03:45:53.068Z,63.20
2022-08-01T03:46:53.048Z,64.00
2022-08-01T03:47:53.036Z,64.97
2022-08-01T03:48:53.070Z,62.69
2022-08-01T03:49:53.015Z,64.65
2022-08-01T03:50:53.046Z,63.83
2022-08-01T03:51:52.993Z,65.19
2022-08-01T03:52:52.983Z,62.10
2022-08-01T03:53:52.977Z,63.01
2022-08-01T03:54:52.962Z,65.60
2022-08-01T03:55:52.985Z,64.92
2022-08-01T03:56:52.943Z,62.87
2022-08-01T03:57:52.935Z,63.33
2022-08-01T03:58:52.914Z,63.04
2022-08-01T03:59:53.914Z,64.34
2022-08-01T04:00:52.903Z,63.00
2022-08-01T04:01:52.985Z,65.12
2022-08-01T04:02:52.883Z,64.96
2022-08-01T04:03:52.874Z,64.54
2022-08-01T04:04:52.867Z,63.85
2022-08-01T04:05:52.852Z,61.56
2022-08-01T04:06:52.860Z,64.78
2022-08-01T04:07:52.835Z,65.58
2022-08-01T04:08:52.824Z,65.26
2022-08-01T04:09:52.814Z,64.61
2022-08-01T04:10:52.806Z,63.82
2022-08-01T04:11:52.811Z,63.98
2022-08-01T04:12:52.793Z,64.62
2022-08-01T04:13:52.782Z,64.84
2022-08-01T04:14:52.770Z,63.22
2022-08-01T04:15:52.755Z,63.21
2022-08-01T04:16:52.761Z,63.03
2022-08-01T04:17:52.737Z,65.50
2022-08-01T04:18:52.727Z,63.32
2022-08-01T04:19:52.709Z,65.44
2022-08-01T04:20:53.705Z,65.70
2022-08-01T04:21:52.725Z,66.78
2022-08-01T04:22:52.689Z,65.70
2022-08-01T04:23:52.687Z,64.02
2022-08-01T04:24:56.706Z,65.55
2022-08-01T04:25:53.656Z,65.47
2022-08-01T04:26:52.660Z,65.90
2022-08-01T04:27:52.754Z,63.22
2022-08-01T04:28:52.628Z,62.52
2022-08-01T04:29:52.620Z,65.71
2022-08-01T04:30:52.608Z,66.13
2022-08-01T04:31:52.615Z,64.17
2022-08-01T04:32:52.588Z,63.51
2022-08-01T04:33:52.577Z,60.66
2022-08-01T04:34:52.568Z,61.91
2022-08-01T04:36:02.242Z,62.46
2022-08-01T04:36:53.561Z,63.42
2022-08-01T04:37:52.541Z,65.07
2022-08-01T04:38:52.533Z,63.21
2022-08-01T04:39:52.524Z,64.50
2022-08-01T04:40:52.511Z,62.79
2022-08-01T04:41:52.540Z,62.76
2022-08-01T04:42:52.508Z,65.47
2022-08-01T04:43:52.485Z,64.64
2022-08-01T04:44:52.474Z,64.80
2022-08-01T04:45:52.476Z,66.87
2022-08-01T04:46:52.478Z,64.67
2022-08-01T04:47:52.443Z,67.31
2022-08-01T04:48:52.472Z,64.49
2022-08-01T04:49:52.480Z,62.51
2022-08-01T04:50:52.616Z,64.78
2022-08-01T04:51:52.411Z,66.03
2022-08-01T04:52:52.415Z,65.84
2022-08-01T04:53:52.385Z,65.00
2022-08-01T04:54:52.376Z,65.34
2022-08-01T04:55:52.366Z,64.38
2022-08-01T04:56:52.354Z,63.31
2022-08-01T04:57:52.357Z,62.99
2022-08-01T04:58:52.334Z,64.62
2022-08-01T04:59:52.324Z,65.04
2022-08-01T05:00:52.407Z,64.79
2022-08-01T05:01:52.375Z,66.47
2022-08-01T05:02:52.309Z,65.35
2022-08-01T05:03:52.282Z,66.18
2022-08-01T05:04:52.277Z,66.18
2022-08-01T05:05:52.266Z,64.20
2022-08-01T05:06:52.259Z,62.97
2022-08-01T05:07:52.279Z,64.66
2022-08-01T05:08:52.233Z,64.97
2022-08-01T05:09:52.224Z,64.50
2022-08-01T05:10:52.218Z,64.77
2022-08-01T05:11:52.203Z,64.88
2022-08-01T05:12:52.237Z,65.36
2022-08-01T05:13:52.188Z,64.39
2022-08-01T05:14:52.170Z,67.64
2022-08-01T05:15:52.163Z,66.66
2022-08-01T05:16:52.148Z,64.75
2022-08-01T05:18:27.715Z,65.61
2022-08-01T05:18:52.127Z,63.41
2022-08-01T05:19:52.128Z,65.07
2022-08-01T05:20:52.106Z,65.30
2022-08-01T05:21:52.101Z,63.88
2022-08-01T05:22:52.092Z,63.46
2022-08-01T05:23:52.092Z,65.09
2022-08-01T05:24:52.066Z,62.72
2022-08-01T05:25:56.850Z,64.55
2022-08-01T05:26:53.066Z,64.08
2022-08-01T05:27:52.044Z,63.14
2022-08-01T05:28:52.051Z,64.26
2022-08-01T05:29:52.019Z,64.43
2022-08-01T05:30:52.008Z,66.50
2022-08-01T05:31:51.999Z,65.57
2022-08-01T05:32:51.994Z,66.31
2022-08-01T05:33:52.018Z,64.87
2022-08-01T05:34:51.970Z,65.48
2022-08-01T05:35:51.962Z,63.56
2022-08-01T05:36:55.386Z,63.03
2022-08-01T05:37:53.939Z,65.20
2022-08-01T05:38:51.961Z,65.12
2022-08-01T05:39:51.918Z,62.42
2022-08-01T05:40:51.908Z,64.81
2022-08-01T05:41:51.907Z,65.91
2022-08-01T05:42:51.893Z,65.30
2022-08-01T05:43:51.889Z,65.59
2022-08-01T05:44:51.893Z,66.68
2022-08-01T05:45:51.868Z,65.11
2022-08-01T05:46:51.853Z,64.88
2022-08-01T05:47:51.843Z,63.65
2022-08-01T05:48:51.874Z,64.52
2022-08-01T05:49:51.839Z,63.01
2022-08-01T05:50:55.684Z,64.23
2022-08-01T05:51:52.810Z,62.79
2022-08-01T05:52:51.799Z,64.37
2022-08-01T05:53:51.782Z,64.96
2022-08-01T05:54:51.791Z,65.22
2022-08-01T05:55:51.764Z,66.15
2022-08-01T05:56:51.752Z,64.22
2022-08-01T05:57:51.765Z,63.80
2022-08-01T05:58:51.739Z,66.07
2022-08-01T05:59:51.753Z,66.13
2022-08-01T06:00:51.715Z,63.23
2022-08-01T06:01:51.782Z,64.52
2022-08-01T06:02:51.694Z,65.10
2022-08-01T06:03:51.683Z,64.88
2022-08-01T06:04:51.732Z,64.66
2022-08-01T06:05:51.659Z,64.42
2022-08-01T06:06:51.651Z,64.15
2022-08-01T06:07:51.646Z,65.11
2022-08-01T06:08:51.698Z,61.56
2022-08-01T06:09:51.633Z,63.07
2022-08-01T06:10:51.631Z,62.61
2022-08-01T06:11:51.604Z,62.72
2022-08-01T06:12:51.621Z,63.50
2022-08-01T06:13:51.589Z,63.14
2022-08-01T06:14:51.601Z,63.67
2022-08-01T06:15:51.587Z,66.20
2022-08-01T06:16:51.560Z,63.99
2022-08-01T06:17:51.549Z,64.67
2022-08-01T06:18:56.286Z,64.56
2022-08-01T06:19:53.526Z,62.91
2022-08-01T06:20:51.528Z,63.68
2022-08-01T06:21:51.515Z,62.07
2022-08-01T06:22:52.583Z,62.47
2022-08-01T06:23:51.490Z,63.88
2022-08-01T06:24:51.483Z,61.86
2022-08-01T06:25:51.498Z,62.34
2022-08-01T06:26:51.464Z,63.36
2022-08-01T06:27:51.458Z,63.15
2022-08-01T06:28:51.450Z,64.74
2022-08-01T06:29:53.900Z,60.82
2022-08-01T06:30:51.463Z,63.31
2022-08-01T06:31:51.413Z,61.61
2022-08-01T06:32:51.405Z,63.06
2022-08-01T06:33:51.398Z,63.23
2022-08-01T06:34:51.383Z,63.39
2022-08-01T06:35:51.372Z,62.69
2022-08-01T06:36:51.402Z,62.07
2022-08-01T06:37:51.384Z,62.11
2022-08-01T06:38:51.342Z,61.67
2022-08-01T06:39:51.352Z,60.82
2022-08-01T06:40:51.322Z,62.23
2022-08-01T06:41:51.327Z,61.75
2022-08-01T06:42:51.303Z,61.96
2022-08-01T06:43:51.292Z,60.99
2022-08-01T06:44:51.285Z,60.40
2022-08-01T06:45:51.277Z,64.43
2022-08-01T06:46:51.280Z,63.70
2022-08-01T06:47:51.252Z,62.53
2022-08-01T06:48:51.315Z,61.03
2022-08-01T06:49:51.236Z,61.82
2022-08-01T06:50:51.219Z,63.37
2022-08-01T06:51:51.230Z,62.59
2022-08-01T06:52:51.205Z,62.84
2022-08-01T06:53:51.194Z,60.79
2022-08-01T06:54:51.183Z,61.37
2022-08-01T06:55:51.173Z,62.35
2022-08-01T06:56:51.206Z,63.05
2022-08-01T06:57:51.158Z,61.88
2022-08-01T06:58:51.141Z,63.27
2022-08-01T06:59:54.258Z,62.86
2022-08-01T07:00:55.943Z,63.92
2022-08-01T07:01:53.148Z,63.62
2022-08-01T07:02:51.105Z,63.09
2022-08-01T07:03:54.677Z,64.52
2022-08-01T07:04:51.087Z,64.31
2022-08-01T07:05:51.070Z,61.94
2022-08-01T07:06:51.078Z,63.78
2022-08-01T07:07:51.090Z,62.67
2022-08-01T07:08:51.068Z,61.66
2022-08-01T07:09:51.031Z,61.37
2022-08-01T07:10:51.019Z,62.71
2022-08-01T07:11:51.009Z,61.95
2022-08-01T07:12:51.080Z,62.89
2022-08-01T07:13:50.997Z,61.91
2022-08-01T07:14:50.981Z,63.52
2022-08-01T07:15:50.974Z,66.00
2022-08-01T07:16:50.960Z,65.38
2022-08-01T07:17:50.970Z,65.54
2022-08-01T07:18:50.970Z,64.76
2022-08-01T07:19:50.930Z,63.82
2022-08-01T07:20:52.690Z,64.69
2022-08-01T07:21:50.959Z,65.33
2022-08-01T07:22:50.922Z,66.07
2022-08-01T07:23:50.906Z,64.12
2022-08-01T07:24:54.429Z,64.63
2022-08-01T07:25:53.039Z,65.38
2022-08-01T07:26:53.571Z,62.69
2022-08-01T07:27:50.863Z,65.66
2022-08-01T07:28:50.841Z,65.20
2022-08-01T07:29:50.830Z,63.88
2022-08-01T07:30:50.821Z,65.16
2022-08-01T07:31:50.812Z,65.85
2022-08-01T07:32:50.843Z,63.78
2022-08-01T07:33:50.786Z,64.98
2022-08-01T07:34:50.779Z,65.32
2022-08-01T07:35:50.766Z,65.41
2022-08-01T07:36:50.758Z,64.59
2022-08-01T07:37:50.778Z,63.63
2022-08-01T07:38:50.743Z,63.88
2022-08-01T07:39:50.731Z,61.77
2022-08-01T07:40:50.721Z,62.61
2022-08-01T07:42:06.364Z,62.82
2022-08-01T07:42:51.755Z,65.49
2022-08-01T07:43:57.136Z,65.63
2022-08-01T07:44:52.681Z,62.39
2022-08-01T07:45:50.673Z,65.88
2022-08-01T07:46:50.670Z,63.30
2022-08-01T07:47:50.654Z,63.39
2022-08-01T07:48:50.704Z,61.23
2022-08-01T07:49:50.630Z,63.44
2022-08-01T07:50:50.628Z,64.46
2022-08-01T07:52:13.446Z,63.43
2022-08-01T07:52:51.601Z,61.68
2022-08-01T07:53:50.624Z,65.16
2022-08-01T07:54:52.361Z,62.99
2022-08-01T07:55:51.573Z,63.11
2022-08-01T07:56:50.573Z,63.75
2022-08-01T07:57:50.551Z,63.91
2022-08-01T07:58:50.584Z,63.83
2022-08-01T07:59:50.533Z,65.14
2022-08-01T08:00:50.521Z,63.18
2022-08-01T08:01:50.566Z,63.02
2022-08-01T08:02:50.502Z,64.42
2022-08-01T08:03:50.503Z,64.17
2022-08-01T08:04:50.515Z,62.96
2022-08-01T08:05:51.636Z,63.57
2022-08-01T08:06:51.460Z,64.13
2022-08-01T08:07:50.449Z,65.70
2022-08-01T08:08:50.457Z,62.99
2022-08-01T08:09:51.222Z,63.24
2022-08-01T08:10:50.425Z,63.60
2022-08-01T08:11:50.416Z,62.62
2022-08-01T08:12:50.407Z,62.20
2022-08-01T08:13:50.402Z,64.89
2022-08-01T08:14:50.391Z,65.33
2022-08-01T08:15:50.400Z,65.26
2022-08-01T08:16:50.402Z,62.18
2022-08-01T08:17:55.181Z,63.26
2022-08-01T08:18:51.356Z,62.11
2022-08-01T08:19:50.344Z,65.20
2022-08-01T08:20:50.363Z,64.23
2022-08-01T08:21:50.324Z,63.76
2022-08-01T08:22:50.313Z,63.55
2022-08-01T08:23:50.302Z,62.90
2022-08-01T08:24:50.289Z,63.17
2022-08-01T08:25:50.346Z,63.79
2022-08-01T08:26:52.312Z,62.77
2022-08-01T08:27:50.259Z,60.98
2022-08-01T08:28:50.259Z,61.74
2022-08-01T08:29:50.242Z,62.12
2022-08-01T08:30:50.257Z,63.76
2022-08-01T08:31:51.803Z,61.74
2022-08-01T08:32:50.208Z,62.23
2022-08-01T08:33:50.200Z,63.25
2022-08-01T08:34:50.236Z,62.21
2022-08-01T08:35:53.610Z,65.38
2022-08-01T08:36:50.185Z,63.00
2022-08-01T08:37:50.249Z,64.58
2022-08-01T08:38:51.148Z,63.85
2022-08-01T08:39:50.139Z,61.97
2022-08-01T08:40:50.128Z,62.93
2022-08-01T08:41:50.222Z,63.67
2022-08-01T08:42:50.105Z,64.61
2022-08-01T08:43:50.096Z,64.34
2022-08-01T08:44:50.088Z,64.90
2022-08-01T08:45:58.917Z,64.20
2022-08-01T08:46:51.101Z,65.13
2022-08-01T08:47:50.055Z,62.62
2022-08-01T08:48:50.092Z,62.41
2022-08-01T08:49:50.138Z,63.12
2022-08-01T08:50:50.021Z,62.85
2022-08-01T08:51:50.052Z,64.29
2022-08-01T08:52:50.003Z,63.38
2022-08-01T08:53:50.008Z,63.66
2022-08-01T08:54:49.984Z,64.85
2022-08-01T08:55:56.398Z,65.43
2022-08-01T08:56:51.009Z,64.62
2022-08-01T08:57:49.956Z,66.07
2022-08-01T08:58:49.954Z,65.24
2022-08-01T08:59:49.941Z,64.67
2022-08-01T09:00:49.928Z,63.55
2022-08-01T09:01:49.913Z,63.53
2022-08-01T09:02:50.007Z,65.85
2022-08-01T09:03:49.908Z,65.98
2022-08-01T09:04:49.895Z,65.00
2022-08-01T09:05:49.876Z,63.68
2022-08-01T09:06:49.872Z,63.00
2022-08-01T09:07:49.874Z,61.77
2022-08-01T09:08:49.850Z,63.73
2022-08-01T09:09:49.906Z,63.19
2022-08-01T09:10:49.830Z,62.89
2022-08-01T09:11:56.739Z,63.11
2022-08-01T09:12:50.897Z,65.11
2022-08-01T09:13:49.810Z,61.97
2022-08-01T09:14:49.795Z,62.96
2022-08-01T09:15:49.778Z,63.55
2022-08-01T09:16:49.772Z,64.55
2022-08-01T09:17:49.779Z,65.36
2022-08-01T09:18:53.460Z,64.34
2022-08-01T09:19:49.760Z,64.44
2022-08-01T09:20:49.734Z,63.77
2022-08-01T09:21:49.725Z,64.73
2022-08-01T09:22:49.757Z,63.65
2022-08-01T09:23:53.434Z,61.84
2022-08-01T09:24:50.694Z,62.12
2022-08-01T09:25:49.689Z,63.90
2022-08-01T09:26:49.671Z,64.10
2022-08-01T09:27:49.679Z,64.35
2022-08-01T09:28:49.658Z,64.80
2022-08-01T09:30:00.171Z,65.15
2022-08-01T09:30:50.645Z,63.33
2022-08-01T09:31:49.627Z,65.59
2022-08-01T09:32:49.674Z,63.73
2022-08-01T09:33:50.699Z,65.30
2022-08-01T09:34:49.611Z,64.36
2022-08-01T09:35:49.589Z,65.98
2022-08-01T09:36:49.580Z,62.71
2022-08-01T09:37:49.614Z,64.02
2022-08-01T09:38:50.862Z,63.08
2022-08-01T09:39:49.556Z,61.82
2022-08-01T09:40:49.601Z,63.02
2022-08-01T09:41:49.531Z,63.82
2022-08-01T09:42:49.522Z,61.08
2022-08-01T09:43:49.533Z,61.52
2022-08-01T09:44:54.247Z,62.52
2022-08-01T09:45:53.404Z,62.09
2022-08-01T09:46:49.483Z,63.44
2022-08-01T09:47:49.472Z,61.91
2022-08-01T09:48:49.581Z,63.90
2022-08-01T09:49:50.113Z,62.77
2022-08-01T09:50:49.445Z,63.52
2022-08-01T09:51:59.372Z,63.38
2022-08-01T09:52:50.427Z,64.05
2022-08-01T09:53:51.853Z,63.32
2022-08-01T09:54:49.422Z,62.72
2022-08-01T09:55:49.405Z,64.80
2022-08-01T09:56:49.399Z,62.57
2022-08-01T09:57:49.382Z,64.93
2022-08-01T09:58:49.399Z,63.33
2022-08-01T10:00:00.528Z,64.22
2022-08-01T10:00:51.351Z,62.50
2022-08-01T10:01:49.342Z,61.86
2022-08-01T10:02:49.329Z,62.64
2022-08-01T10:03:49.445Z,65.27
2022-08-01T10:04:50.608Z,63.48
2022-08-01T10:05:50.062Z,63.12
2022-08-01T10:06:49.288Z,63.03
2022-08-01T10:07:49.276Z,63.19
2022-08-01T10:08:49.296Z,63.56
2022-08-01T10:09:49.274Z,62.20
2022-08-01T10:10:49.246Z,61.90
2022-08-01T10:11:49.234Z,65.41
2022-08-01T10:12:49.251Z,63.03
2022-08-01T10:13:49.215Z,63.81
2022-08-01T10:14:50.378Z,65.00
2022-08-01T10:15:49.251Z,64.54
2022-08-01T10:16:53.520Z,63.04
2022-08-01T10:17:51.622Z,62.96
2022-08-01T10:18:49.168Z,64.44
2022-08-01T10:19:49.174Z,64.11
2022-08-01T10:20:49.153Z,63.11
2022-08-01T10:21:58.567Z,63.33
2022-08-01T10:22:50.132Z,66.56
2022-08-01T10:23:49.127Z,63.79
2022-08-01T10:24:49.132Z,62.80
2022-08-01T10:25:50.099Z,65.01
2022-08-01T10:26:49.105Z,64.03
2022-08-01T10:27:49.081Z,65.37
2022-08-01T10:28:49.070Z,63.65
2022-08-01T10:30:05.523Z,63.29
2022-08-01T10:30:50.067Z,63.41
2022-08-01T10:31:50.478Z,63.29
2022-08-01T10:32:50.639Z,62.35
2022-08-01T10:33:52.455Z,66.01
2022-08-01T10:34:49.016Z,62.54
2022-08-01T10:35:49.016Z,60.76
2022-08-01T10:36:49.008Z,61.95
2022-08-01T10:37:52.441Z,60.90
2022-08-01T10:38:48.972Z,59.86
2022-08-01T10:39:48.967Z,61.63
2022-08-01T10:40:48.971Z,63.02
2022-08-01T10:41:48.945Z,61.90
2022-08-01T10:42:48.933Z,60.98
2022-08-01T10:43:48.937Z,61.97
2022-08-01T10:44:49.124Z,58.95
2022-08-01T10:45:48.949Z,61.61
2022-08-01T10:46:48.893Z,62.30
2022-08-01T10:47:49.886Z,63.32
2022-08-01T10:48:48.920Z,63.11
2022-08-01T10:49:48.867Z,64.15
2022-08-01T10:50:48.918Z,61.44
2022-08-01T10:51:51.606Z,62.37
2022-08-01T10:52:49.838Z,63.02
2022-08-01T10:53:48.826Z,59.59
2022-08-01T10:54:52.685Z,60.78
2022-08-01T10:55:48.816Z,62.43
2022-08-01T10:56:48.908Z,60.36
2022-08-01T10:57:52.549Z,62.47
2022-08-01T10:58:48.866Z,61.79
2022-08-01T10:59:50.835Z,60.65
2022-08-01T11:00:49.775Z,62.95
2022-08-01T11:01:48.799Z,62.19
2022-08-01T11:02:48.739Z,61.75
2022-08-01T11:03:57.524Z,61.52
2022-08-01T11:04:50.723Z,63.09
2022-08-01T11:05:49.684Z,60.51
2022-08-01T11:06:48.747Z,61.07
2022-08-01T11:07:49.636Z,62.65
2022-08-01T11:08:48.687Z,63.76
2022-08-01T11:09:51.636Z,63.56
2022-08-01T11:10:49.668Z,61.25
2022-08-01T11:11:48.706Z,62.69
2022-08-01T11:12:48.666Z,63.22
2022-08-01T11:13:48.637Z,62.76
2022-08-01T11:14:55.665Z,62.58
2022-08-01T11:15:50.974Z,61.86
2022-08-01T11:16:48.640Z,63.42
2022-08-01T11:17:48.955Z,62.84
2022-08-01T11:18:48.590Z,65.03
2022-08-01T11:19:48.591Z,64.65
2022-08-01T11:20:48.566Z,64.31
2022-08-01T11:21:57.733Z,62.58
2022-08-01T11:22:49.586Z,60.82
2022-08-01T11:23:48.578Z,61.43
2022-08-01T11:24:49.721Z,61.46
2022-08-01T11:26:05.708Z,63.10
2022-08-01T11:26:49.509Z,61.03
2022-08-01T11:27:49.762Z,62.00
2022-08-01T11:29:04.985Z,60.74
2022-08-01T11:29:50.481Z,60.18
2022-08-01T11:30:48.496Z,61.19
2022-08-01T11:31:48.462Z,59.99
2022-08-01T11:33:10.242Z,62.73
2022-08-01T11:33:50.453Z,63.31
2022-08-01T11:34:48.429Z,62.94
2022-08-01T11:35:48.420Z,62.04
2022-08-01T11:37:03.738Z,60.14
2022-08-01T11:37:50.397Z,63.27
2022-08-01T11:38:48.444Z,61.99
2022-08-01T11:39:49.383Z,62.42
2022-08-01T11:40:48.369Z,63.03
2022-08-01T11:41:48.379Z,61.94
2022-08-01T11:42:48.357Z,63.14
2022-08-01T11:43:48.460Z,61.01
2022-08-01T11:44:48.332Z,60.05
2022-08-01T11:45:48.320Z,61.54
2022-08-01T11:46:48.313Z,63.50
2022-08-01T11:47:49.894Z,61.41
2022-08-01T11:48:48.298Z,61.22
2022-08-01T11:49:49.328Z,60.98
2022-08-01T11:50:49.275Z,62.84
2022-08-01T11:51:48.290Z,62.08
2022-08-01T11:52:48.267Z,60.86
2022-08-01T11:53:48.248Z,61.59
2022-08-01T11:54:48.301Z,62.27
2022-08-01T11:55:51.395Z,62.11
2022-08-01T11:56:48.217Z,60.99
2022-08-01T11:57:48.541Z,63.52
2022-08-01T11:58:48.192Z,63.11
2022-08-01T12:00:02.567Z,64.92
2022-08-01T12:00:49.184Z,65.10
2022-08-01T12:01:48.164Z,64.01
2022-08-01T12:02:48.242Z,62.46
2022-08-01T12:03:48.154Z,64.66
2022-08-01T12:04:48.167Z,65.54
2022-08-01T12:05:48.126Z,67.08
2022-08-01T12:06:48.115Z,66.40
2022-08-01T12:07:48.103Z,67.32
2022-08-01T12:08:48.098Z,64.60
2022-08-01T12:09:48.088Z,64.36
2022-08-01T12:10:50.018Z,64.80
2022-08-01T12:11:48.072Z,62.77
2022-08-01T12:12:48.071Z,62.19
2022-08-01T12:13:48.049Z,63.84
2022-08-01T12:14:48.050Z,63.89
2022-08-01T12:15:49.777Z,62.73
2022-08-01T12:16:48.014Z,61.07
2022-08-01T12:17:59.035Z,60.99
2022-08-01T12:18:48.998Z,61.06
2022-08-01T12:19:47.985Z,62.03
2022-08-01T12:20:57.040Z,62.38
2022-08-01T12:21:53.267Z,60.12
2022-08-01T12:22:48.963Z,60.26
2022-08-01T12:23:47.943Z,60.58
2022-08-01T12:24:47.935Z,63.08
2022-08-01T12:25:47.941Z,65.51
2022-08-01T12:26:47.913Z,64.75
2022-08-01T12:27:47.910Z,63.64
2022-08-01T12:28:47.915Z,67.89
2022-08-01T12:29:47.894Z,66.45
2022-08-01T12:30:47.912Z,68.28
2022-08-01T12:31:47.880Z,66.90
2022-08-01T12:32:47.857Z,66.40
2022-08-01T12:33:47.892Z,67.27
2022-08-01T12:34:47.844Z,69.53
2022-08-01T12:35:47.853Z,67.04
2022-08-01T12:36:47.828Z,64.53
2022-08-01T12:37:47.816Z,64.37
2022-08-01T12:38:47.813Z,63.96
2022-08-01T12:39:47.803Z,65.94
2022-08-01T12:40:53.297Z,64.73
2022-08-01T12:41:48.781Z,66.15
2022-08-01T12:42:47.769Z,68.29
2022-08-01T12:43:47.814Z,66.95
2022-08-01T12:44:47.753Z,65.49
2022-08-01T12:45:56.841Z,67.13
2022-08-01T12:46:48.732Z,67.83
2022-08-01T12:47:47.726Z,67.96
2022-08-01T12:48:47.902Z,64.97
2022-08-01T12:49:47.705Z,69.05
2022-08-01T12:50:47.699Z,68.70
2022-08-01T12:51:57.451Z,69.03
2022-08-01T12:52:48.682Z,67.45